Time;durP1;ratioP1;P1;durP2;ratioP2;P2;SDS_P1;SDS_P2;PMS_P1;PMS_P2;Temp;Humidity;BMP_temperature;BMP_pressure;BME280_temperature;BME280_humidity;BME280_pressure;Samples;Min_cycle;Max_cycle;Signal;HPM_P1;HPM_P2
2021/05/24 00:00:20;;;;;;;5.97;2.03;;;10.30;99.90;;;;;;4960434;29;20082;-91
2021/05/24 00:02:48;;;;;;;4.90;2.53;;;10.30;99.90;;;;;;4992736;29;20035;-91
2021/05/24 00:05:23;;;;;;;4.50;2.30;;;10.30;99.90;;;;;;4975982;29;20094;-92
2021/05/24 00:07:50;;;;;;;7.80;2.42;;;10.30;99.90;;;;;;4976466;29;20059;-91
2021/05/24 00:10:21;;;;;;;6.78;2.70;;;10.40;99.90;;;;;;4975270;29;20063;-90
2021/05/24 00:12:50;;;;;;;6.40;2.20;;;10.30;99.90;;;;;;4976283;29;20039;-89
2021/05/24 00:15:20;;;;;;;6.65;2.47;;;10.30;99.90;;;;;;4976008;29;20487;-91
2021/05/24 00:17:48;;;;;;;7.97;2.58;;;10.30;99.90;;;;;;4992009;29;20118;-92
2021/05/24 00:20:17;;;;;;;4.32;2.08;;;10.30;99.90;;;;;;4975589;29;20043;-92
2021/05/24 00:22:44;;;;;;;7.93;2.35;;;10.30;99.90;;;;;;4960197;29;20468;-92
2021/05/24 00:25:12;;;;;;;5.95;2.30;;;10.20;99.90;;;;;;4975508;29;20118;-92
2021/05/24 00:27:39;;;;;;;6.18;2.50;;;10.20;99.90;;;;;;4960115;28;20039;-91
2021/05/24 00:30:07;;;;;;;7.90;2.30;;;10.20;99.90;;;;;;4990890;29;20040;-91
2021/05/24 00:32:34;;;;;;;5.60;2.50;;;10.20;99.90;;;;;;4975728;29;20075;-91
2021/05/24 00:35:02;;;;;;;5.82;2.28;;;10.20;99.90;;;;;;4975324;29;20039;-90
2021/05/24 00:37:29;;;;;;;5.40;2.28;;;10.20;99.90;;;;;;4960265;29;20053;-91
2021/05/24 00:39:56;;;;;;;5.53;2.60;;;10.20;99.90;;;;;;4991561;29;20047;-91
2021/05/24 00:42:23;;;;;;;6.13;2.33;;;10.30;99.90;;;;;;4975326;29;20039;-91
2021/05/24 00:44:50;;;;;;;6.43;2.00;;;10.20;99.90;;;;;;4991680;29;20126;-91
2021/05/24 00:47:18;;;;;;;5.28;2.10;;;10.20;99.90;;;;;;4991474;29;20068;-91
2021/05/24 00:49:45;;;;;;;5.93;2.50;;;10.20;99.90;;;;;;4975931;29;20052;-91
2021/05/24 00:52:13;;;;;;;5.85;2.40;;;10.20;99.90;;;;;;4971582;29;20048;-92
2021/05/24 00:54:41;;;;;;;4.10;2.45;;;10.20;99.90;;;;;;4956286;29;20071;-92
2021/05/24 00:57:08;;;;;;;8.45;2.28;;;10.20;99.90;;;;;;4971889;29;20126;-92
2021/05/24 00:59:36;;;;;;;5.15;2.25;;;10.20;99.90;;;;;;4972367;29;20051;-93
2021/05/24 01:02:06;;;;;;;6.97;2.17;;;10.20;99.90;;;;;;4971593;29;20094;-92
2021/05/24 01:04:35;;;;;;;7.38;2.20;;;10.20;99.90;;;;;;4956465;29;20381;-92
2021/05/24 01:07:04;;;;;;;6.88;2.33;;;10.20;99.90;;;;;;4972130;29;20103;-92
2021/05/24 01:09:31;;;;;;;6.85;1.90;;;10.20;99.90;;;;;;4987632;29;20407;-92
2021/05/24 01:11:59;;;;;;;6.75;2.00;;;10.20;99.90;;;;;;4971681;29;20060;-91
2021/05/24 01:14:26;;;;;;;6.97;2.05;;;10.30;99.90;;;;;;4955408;29;20096;-90
2021/05/24 01:16:54;;;;;;;7.97;2.40;;;10.20;99.90;;;;;;4971651;29;20083;-92
2021/05/24 01:19:23;;;;;;;6.60;2.05;;;10.30;99.90;;;;;;4987123;29;20463;-92
2021/05/24 01:21:52;;;;;;;6.20;2.38;;;10.30;99.90;;;;;;4956035;29;20052;-92
2021/05/24 01:24:20;;;;;;;6.53;2.20;;;10.30;99.90;;;;;;4986903;29;20040;-91
2021/05/24 01:26:48;;;;;;;4.47;2.35;;;10.30;99.90;;;;;;4971846;29;20459;-92
2021/05/24 01:29:19;;;;;;;4.38;2.30;;;10.20;99.90;;;;;;4970926;29;20036;-93
2021/05/24 01:31:50;;;;;;;7.30;2.55;;;10.20;99.90;;;;;;4970788;29;20079;-93
2021/05/24 01:34:17;;;;;;;4.65;2.25;;;10.20;99.90;;;;;;4970545;29;20511;-92
2021/05/24 01:36:44;;;;;;;7.57;2.58;;;10.20;99.90;;;;;;4971233;29;20503;-93
2021/05/24 01:39:12;;;;;;;5.30;2.40;;;10.20;99.90;;;;;;4970713;29;20480;-92
2021/05/24 01:41:39;;;;;;;6.20;2.65;;;10.20;99.90;;;;;;4987498;29;20042;-93
2021/05/24 01:44:06;;;;;;;5.13;2.30;;;10.20;99.90;;;;;;4955441;29;20043;-95
2021/05/24 01:46:33;;;;;;;5.70;2.50;;;10.10;99.90;;;;;;4971103;29;20039;-94
2021/05/24 01:49:00;;;;;;;5.60;2.42;;;10.10;99.90;;;;;;4987262;29;20079;-94
2021/05/24 01:51:27;;;;;;;5.45;2.33;;;10.10;99.90;;;;;;4970416;29;20047;-94
2021/05/24 01:53:56;;;;;;;5.97;2.47;;;10.00;99.90;;;;;;4970934;29;20059;-95
2021/05/24 01:56:23;;;;;;;8.95;2.58;;;10.00;99.90;;;;;;4955097;29;20048;-95
2021/05/24 01:58:50;;;;;;;7.18;2.35;;;10.10;99.90;;;;;;4987220;29;20484;-93
2021/05/24 02:01:16;;;;;;;4.72;2.42;;;10.00;99.90;;;;;;4955453;29;20051;-95
2021/05/24 02:03:45;;;;;;;6.82;2.58;;;10.00;99.90;;;;;;4955141;29;20055;-94
2021/05/24 02:06:13;;;;;;;5.95;2.38;;;10.00;99.90;;;;;;4955272;29;20118;-95
2021/05/24 02:08:40;;;;;;;5.95;2.63;;;10.00;99.90;;;;;;4955583;29;20051;-96
2021/05/24 02:11:07;;;;;;;5.90;2.13;;;10.00;99.90;;;;;;4970985;29;20048;-96
2021/05/24 02:13:34;;;;;;;7.30;2.60;;;9.90;99.90;;;;;;4970654;29;20559;-95
2021/05/24 02:16:01;;;;;;;5.05;2.58;;;10.00;99.90;;;;;;4970658;29;20060;-96
2021/05/24 02:18:48;;;;;;;7.18;2.25;;;10.00;99.90;;;;;;4970838;29;20177;-95
2021/05/24 02:21:15;;;;;;;6.72;2.80;;;10.00;99.90;;;;;;4969560;29;20067;-94
2021/05/24 02:23:42;;;;;;;7.45;2.67;;;9.90;99.90;;;;;;4986173;29;20043;-96
2021/05/24 02:26:09;;;;;;;4.63;2.65;;;9.90;99.90;;;;;;4954677;29;20054;-95
2021/05/24 02:28:36;;;;;;;8.18;2.63;;;9.90;99.90;;;;;;4985920;29;20090;-96
2021/05/24 02:31:03;;;;;;;6.95;2.70;;;9.90;99.90;;;;;;4970383;29;20043;-96
2021/05/24 02:33:30;;;;;;;4.43;2.50;;;9.90;99.90;;;;;;4954471;29;20563;-96
2021/05/24 02:35:59;;;;;;;6.35;2.58;;;9.80;99.90;;;;;;4954750;29;20055;-95
2021/05/24 02:38:27;;;;;;;5.63;2.67;;;9.80;99.90;;;;;;4954436;29;20048;-94
2021/05/24 02:40:54;;;;;;;5.55;2.83;;;9.80;99.90;;;;;;4986167;29;20035;-96
2021/05/24 02:43:20;;;;;;;7.13;3.00;;;9.80;99.90;;;;;;4970424;29;20053;-94
2021/05/24 02:45:48;;;;;;;5.50;2.80;;;9.80;99.90;;;;;;4970095;29;20040;-96
2021/05/24 02:48:16;;;;;;;8.48;2.83;;;9.80;99.90;;;;;;4969788;29;20044;-91
2021/05/24 02:50:43;;;;;;;5.97;3.00;;;9.80;99.90;;;;;;4970331;29;20389;-96
2021/05/24 02:53:10;;;;;;;6.97;2.70;;;9.60;99.90;;;;;;4953875;29;20540;-96
2021/05/24 02:55:37;;;;;;;7.05;3.10;;;9.60;99.90;;;;;;4969860;29;20106;-95
2021/05/24 02:58:10;;;;;;;7.60;3.17;;;9.70;99.90;;;;;;4940224;29;20052;-96
2021/05/24 03:00:37;;;;;;;5.93;2.90;;;9.70;99.90;;;;;;4985640;29;20070;-95
2021/05/24 03:03:04;;;;;;;8.65;3.20;;;9.70;99.90;;;;;;4954358;29;20408;-96
2021/05/24 03:05:31;;;;;;;6.22;3.30;;;9.70;99.90;;;;;;4953448;29;20051;-96
2021/05/24 03:08:00;;;;;;;8.85;3.38;;;9.70;99.90;;;;;;4970021;29;20044;-94
2021/05/24 03:10:27;;;;;;;8.52;3.35;;;9.70;99.90;;;;;;4985438;29;20040;-96
2021/05/24 03:12:55;;;;;;;8.23;3.22;;;9.60;99.90;;;;;;4970749;29;20047;-94
2021/05/24 03:15:23;;;;;;;6.85;3.05;;;9.60;99.90;;;;;;4985594;29;20039;-93
2021/05/24 03:17:51;;;;;;;5.90;3.22;;;9.60;99.90;;;;;;4970144;29;20040;-91
2021/05/24 03:20:18;;;;;;;8.00;3.50;;;9.60;99.90;;;;;;4970213;29;20044;-92
2021/05/24 03:22:46;;;;;;;5.78;3.58;;;9.60;99.90;;;;;;4985633;29;20036;-93
2021/05/24 03:25:15;;;;;;;9.90;3.47;;;9.60;99.90;;;;;;4985792;29;20063;-94
2021/05/24 03:27:41;;;;;;;7.72;3.45;;;9.60;99.90;;;;;;4968900;29;20932;-93
2021/05/24 03:30:09;;;;;;;7.22;3.10;;;9.50;99.90;;;;;;4969395;29;20046;-93
2021/05/24 03:32:37;;;;;;;8.57;3.45;;;9.60;99.90;;;;;;4984897;29;20047;-92
2021/05/24 03:35:05;;;;;;;6.88;3.30;;;9.50;99.90;;;;;;4969136;29;20040;-92
2021/05/24 03:37:32;;;;;;;6.22;2.80;;;9.50;99.90;;;;;;4984991;29;20035;-93
2021/05/24 03:39:59;;;;;;;8.30;3.33;;;9.50;99.90;;;;;;4954337;29;20102;-93
2021/05/24 03:42:25;;;;;;;9.13;3.67;;;9.50;99.90;;;;;;4969623;29;20118;-93
2021/05/24 03:44:52;;;;;;;7.60;3.53;;;9.50;99.90;;;;;;4970115;29;20055;-94
2021/05/24 03:47:19;;;;;;;8.50;3.28;;;9.50;99.90;;;;;;4969825;29;20046;-92
2021/05/24 03:49:46;;;;;;;7.50;3.60;;;9.50;99.90;;;;;;4968430;29;20031;-93
2021/05/24 03:52:14;;;;;;;8.63;3.40;;;9.50;99.90;;;;;;4969989;29;20452;-93
2021/05/24 03:54:42;;;;;;;9.85;3.55;;;9.50;99.90;;;;;;4985791;29;20539;-94
2021/05/24 03:57:09;;;;;;;8.98;3.53;;;9.50;99.90;;;;;;4986383;29;20040;-93
2021/05/24 03:59:37;;;;;;;8.45;3.40;;;9.50;99.90;;;;;;4969354;29;20066;-94
2021/05/24 04:02:04;;;;;;;6.18;3.50;;;9.50;99.90;;;;;;4985754;29;20038;-93
2021/05/24 04:04:31;;;;;;;11.02;3.55;;;9.50;99.90;;;;;;4987065;28;20040;-93
2021/05/24 04:07:00;;;;;;;7.07;3.10;;;9.50;99.90;;;;;;4973091;29;20552;-94
2021/05/24 04:09:27;;;;;;;8.73;2.80;;;9.50;99.90;;;;;;4956742;29;20043;-94
2021/05/24 04:11:54;;;;;;;8.75;3.13;;;9.50;99.90;;;;;;4972963;29;20051;-95
2021/05/24 04:14:21;;;;;;;4.88;2.30;;;9.50;99.90;;;;;;4957204;29;20040;-94
2021/05/24 04:16:49;;;;;;;9.32;2.55;;;9.50;99.90;;;;;;4973476;29;20054;-93
2021/05/24 04:19:16;;;;;;;6.32;2.88;;;9.60;99.90;;;;;;4976117;29;20126;-94
2021/05/24 04:21:44;;;;;;;6.32;2.50;;;9.60;99.90;;;;;;4964051;29;20052;-94
2021/05/24 04:24:12;;;;;;;4.95;2.33;;;9.60;99.90;;;;;;4976302;29;20050;-94
2021/05/24 04:26:39;;;;;;;4.28;2.60;;;9.60;99.90;;;;;;4975793;29;20119;-94
2021/05/24 04:29:07;;;;;;;5.20;2.30;;;9.60;99.90;;;;;;4975639;29;20043;-96
2021/05/24 04:31:35;;;;;;;7.70;2.53;;;9.60;99.90;;;;;;4975692;29;20102;-94
2021/05/24 04:34:02;;;;;;;5.63;2.28;;;9.60;99.90;;;;;;4975174;29;20137;-94
2021/05/24 04:36:30;;;;;;;7.47;2.00;;;9.60;99.90;;;;;;4975550;29;20047;-93
2021/05/24 04:38:57;;;;;;;5.53;2.05;;;9.60;99.90;;;;;;4991883;29;20039;-92
2021/05/24 04:41:24;;;;;;;5.15;1.85;;;9.70;99.90;;;;;;4991790;29;20039;-92
2021/05/24 04:43:55;;;;;;;3.60;1.52;;;9.70;99.90;;;;;;4991331;29;20482;-93
2021/05/24 04:46:22;;;;;;;4.47;1.80;;;9.70;99.90;;;;;;4991832;29;20039;-94
2021/05/24 04:48:49;;;;;;;4.20;1.90;;;9.80;99.90;;;;;;4975184;29;20134;-92
2021/05/24 04:51:16;;;;;;;5.68;1.90;;;9.80;99.90;;;;;;4991746;29;20062;-92
2021/05/24 04:53:43;;;;;;;4.05;1.83;;;9.80;99.90;;;;;;4975618;29;20054;-93
2021/05/24 04:56:10;;;;;;;5.03;1.70;;;9.90;99.90;;;;;;4991883;29;20388;-91
2021/05/24 04:58:37;;;;;;;2.78;1.63;;;9.90;99.90;;;;;;4975210;29;20134;-93
2021/05/24 05:01:03;;;;;;;3.33;1.60;;;10.00;99.90;;;;;;4991383;29;20117;-92
2021/05/24 05:03:33;;;;;;;4.10;1.75;;;10.00;99.90;;;;;;4991216;29;20043;-93
2021/05/24 05:06:00;;;;;;;3.63;1.63;;;10.00;99.90;;;;;;4991160;29;20051;-93
2021/05/24 05:08:27;;;;;;;5.00;1.50;;;10.10;99.90;;;;;;4975029;29;20081;-93
2021/05/24 05:10:54;;;;;;;5.65;1.42;;;10.10;99.90;;;;;;4974940;29;20452;-93
2021/05/24 05:13:21;;;;;;;3.30;1.00;;;10.20;99.90;;;;;;4975184;29;20074;-92
2021/05/24 05:15:48;;;;;;;3.85;1.52;;;10.30;99.90;;;;;;4989595;28;20043;-91
2021/05/24 05:18:15;;;;;;;3.38;1.25;;;10.40;99.90;;;;;;4990575;29;20047;-91
2021/05/24 05:20:42;;;;;;;5.57;1.30;;;10.50;99.90;;;;;;4991075;29;20126;-92
2021/05/24 05:23:11;;;;;;;4.97;1.38;;;10.50;99.90;;;;;;4991343;29;20096;-90
2021/05/24 05:25:38;;;;;;;3.45;1.33;;;10.60;99.90;;;;;;4991421;29;20031;-91
2021/05/24 05:28:07;;;;;;;3.15;1.30;;;10.70;99.90;;;;;;4990720;29;20183;-91
2021/05/24 05:30:34;;;;;;;3.45;1.30;;;10.80;99.90;;;;;;4974499;29;20134;-91
2021/05/24 05:33:01;;;;;;;2.72;1.15;;;10.80;99.90;;;;;;4990742;29;20043;-91
2021/05/24 05:35:28;;;;;;;3.28;1.20;;;10.90;99.90;;;;;;4990761;29;20050;-91
2021/05/24 05:37:55;;;;;;;3.33;1.15;;;10.90;99.90;;;;;;4974221;29;20043;-88
2021/05/24 05:40:23;;;;;;;3.65;1.25;;;11.00;99.90;;;;;;4990523;29;20090;-90
2021/05/24 05:42:50;;;;;;;3.47;1.20;;;11.00;99.90;;;;;;4990169;29;20059;-90
2021/05/24 05:45:17;;;;;;;5.78;1.45;;;11.00;99.90;;;;;;4990296;29;20094;-91
2021/05/24 05:47:44;;;;;;;3.85;1.10;;;11.10;99.90;;;;;;4990015;29;20051;-91
2021/05/24 05:50:12;;;;;;;3.58;1.40;;;11.20;99.90;;;;;;4991542;28;20035;-89
2021/05/24 05:52:39;;;;;;;4.95;1.30;;;11.20;99.90;;;;;;5009037;28;20094;-88
2021/05/24 05:55:07;;;;;;;4.10;1.10;;;11.20;99.90;;;;;;4977407;28;20407;-89
2021/05/24 05:57:34;;;;;;;5.30;1.23;;;11.20;99.90;;;;;;4977586;28;20070;-89
2021/05/24 06:00:01;;;;;;;3.63;1.30;;;11.30;99.90;;;;;;4992344;28;20125;-89
2021/05/24 06:02:28;;;;;;;2.47;1.10;;;11.40;99.90;;;;;;5010006;28;20058;-89
2021/05/24 06:04:55;;;;;;;3.05;1.20;;;11.40;99.90;;;;;;4993891;28;20034;-88
2021/05/24 06:07:22;;;;;;;3.75;1.00;;;11.50;99.90;;;;;;4976890;28;20073;-89
2021/05/24 06:09:48;;;;;;;12.85;1.52;;;11.50;99.90;;;;;;4976956;28;20558;-89
2021/05/24 06:12:15;;;;;;;4.72;1.40;;;11.60;99.90;;;;;;4993224;28;20031;-88
2021/05/24 06:14:42;;;;;;;5.40;1.20;;;11.60;99.90;;;;;;4992303;28;20068;-86
2021/05/24 06:17:09;;;;;;;3.20;1.27;;;11.70;99.90;;;;;;5008592;28;20045;-87
2021/05/24 06:19:36;;;;;;;3.75;1.27;;;11.80;99.90;;;;;;4989153;28;20051;-88
2021/05/24 06:22:03;;;;;;;3.10;1.10;;;11.90;99.90;;;;;;5008292;28;20467;-86
2021/05/24 06:24:30;;;;;;;2.85;1.00;;;12.00;99.90;;;;;;5002192;28;20117;-88
2021/05/24 06:26:57;;;;;;;3.33;1.17;;;12.10;99.90;;;;;;4990969;28;20058;-87
2021/05/24 06:29:25;;;;;;;3.10;1.08;;;12.20;99.90;;;;;;4960486;28;20061;-88
2021/05/24 06:31:53;;;;;;;2.20;0.90;;;12.30;99.90;;;;;;4973590;28;20420;-89
2021/05/24 06:34:20;;;;;;;2.50;0.90;;;12.40;99.90;;;;;;4975994;28;20047;-88
2021/05/24 06:36:47;;;;;;;3.20;0.93;;;12.50;99.90;;;;;;4993226;28;20115;-89
2021/05/24 06:39:16;;;;;;;1.90;1.00;;;12.60;99.90;;;;;;4973406;29;20042;-88
2021/05/24 06:41:43;;;;;;;2.58;0.88;;;12.60;99.90;;;;;;4972617;29;20035;-91
2021/05/24 06:44:10;;;;;;;4.65;1.10;;;12.50;99.90;;;;;;4988677;29;20070;-86
2021/05/24 06:46:37;;;;;;;4.15;1.10;;;12.60;99.90;;;;;;4957573;29;20083;-88
2021/05/24 06:49:03;;;;;;;2.47;0.95;;;12.60;99.90;;;;;;4972436;29;20508;-86
2021/05/24 06:51:31;;;;;;;6.25;1.23;;;12.60;99.90;;;;;;4972756;29;20094;-86
2021/05/24 06:53:58;;;;;;;4.32;1.20;;;12.60;99.90;;;;;;4988089;29;20166;-86
2021/05/24 06:56:25;;;;;;;3.58;1.10;;;12.70;99.90;;;;;;4973018;29;20042;-87
2021/05/24 06:58:52;;;;;;;2.53;0.90;;;12.70;99.90;;;;;;4973267;29;20395;-89
2021/05/24 07:01:19;;;;;;;6.25;1.13;;;12.80;99.90;;;;;;4973807;29;20503;-90
2021/05/24 07:03:46;;;;;;;4.68;1.20;;;12.80;99.90;;;;;;4956888;29;20041;-86
2021/05/24 07:06:13;;;;;;;3.70;1.10;;;12.90;99.90;;;;;;4972994;29;20118;-87
2021/05/24 07:08:40;;;;;;;3.63;1.02;;;13.00;99.90;;;;;;4969900;28;20034;-87
2021/05/24 07:11:16;;;;;;;3.08;1.00;;;13.10;99.90;;;;;;4944389;28;20101;-88
2021/05/24 07:13:43;;;;;;;6.38;1.10;;;13.10;99.90;;;;;;4960851;28;20094;-87
2021/05/24 07:16:12;;;;;;;3.72;1.00;;;13.30;99.90;;;;;;4992083;28;20162;-87
2021/05/24 07:18:48;;;;;;;4.10;1.00;;;13.30;99.90;;;;;;5002906;28;20046;-87
2021/05/24 07:21:15;;;;;;;3.47;0.93;;;13.40;99.90;;;;;;4974761;29;20059;-87
2021/05/24 07:24:17;;;;;;;2.60;1.10;;;13.40;99.90;;;;;;4973348;29;20542;-88
2021/05/24 07:26:49;;;;;;;5.20;1.25;;;13.50;99.90;;;;;;4958345;29;20436;-87
2021/05/24 07:29:29;;;;;;;2.90;0.85;;;13.60;99.90;;;;;;4973192;29;20048;-88
2021/05/24 07:31:58;;;;;;;7.18;1.30;;;13.50;99.90;;;;;;4989195;29;20071;-88
2021/05/24 07:34:28;;;;;;;2.00;0.90;;;13.80;99.90;;;;;;4957153;29;20055;-87
2021/05/24 07:36:56;;;;;;;2.50;1.00;;;13.90;99.90;;;;;;4973139;29;20500;-88
2021/05/24 07:39:23;;;;;;;3.40;1.00;;;14.00;99.90;;;;;;4976106;29;20050;-88
2021/05/24 07:41:50;;;;;;;3.33;0.90;;;14.10;99.90;;;;;;4960555;29;20079;-87
2021/05/24 07:44:17;;;;;;;4.82;0.90;;;14.10;99.90;;;;;;4960513;29;20054;-88
2021/05/24 07:46:44;;;;;;;1.88;0.88;;;14.10;99.90;;;;;;4976262;29;20111;-88
2021/05/24 07:49:11;;;;;;;3.67;1.10;;;14.20;99.90;;;;;;4975956;29;20047;-89
2021/05/24 07:51:38;;;;;;;3.88;1.20;;;14.20;99.90;;;;;;4960827;29;20052;-88
2021/05/24 07:54:05;;;;;;;6.03;0.98;;;14.30;99.90;;;;;;4976550;29;20388;-89
2021/05/24 07:56:32;;;;;;;7.78;0.90;;;14.30;99.90;;;;;;4976409;29;20496;-87
2021/05/24 07:58:58;;;;;;;5.65;1.10;;;14.40;99.90;;;;;;4976215;29;20503;-88
2021/05/24 08:01:25;;;;;;;10.32;1.40;;;14.40;99.90;;;;;;4976886;29;20042;-88
2021/05/24 08:03:52;;;;;;;3.58;0.90;;;14.50;99.90;;;;;;4976517;29;20130;-88
2021/05/24 08:06:19;;;;;;;5.53;1.40;;;14.50;99.90;;;;;;4975952;29;20050;-89
2021/05/24 08:08:46;;;;;;;2.42;1.10;;;14.70;99.90;;;;;;4992408;29;20031;-88
2021/05/24 08:11:15;;;;;;;6.32;1.38;;;14.80;99.90;;;;;;4975780;29;20051;-87
2021/05/24 08:13:42;;;;;;;4.18;1.60;;;14.90;99.90;;;;;;4975944;29;20444;-88
2021/05/24 08:16:13;;;;;;;2.67;1.20;;;15.00;99.90;;;;;;4976167;29;20039;-87
2021/05/24 08:18:43;;;;;;;2.72;1.20;;;15.10;99.90;;;;;;4976408;29;20078;-88
2021/05/24 08:21:11;;;;;;;3.88;0.95;;;15.10;99.90;;;;;;4991021;29;20070;-87
2021/05/24 08:23:39;;;;;;;2.75;0.90;;;15.20;99.90;;;;;;4975369;29;20122;-89
2021/05/24 08:26:06;;;;;;;3.38;0.90;;;15.30;99.90;;;;;;4991315;29;20033;-87
2021/05/24 08:28:33;;;;;;;7.45;1.15;;;15.30;99.90;;;;;;4975078;29;20039;-88
2021/05/24 08:31:00;;;;;;;10.52;1.30;;;15.40;99.90;;;;;;4974953;29;20070;-88
2021/05/24 08:33:30;;;;;;;3.65;1.05;;;15.40;99.90;;;;;;4991083;29;20412;-88
2021/05/24 08:35:59;;;;;;;2.47;0.95;;;15.50;99.90;;;;;;4960369;29;20054;-87
2021/05/24 08:38:26;;;;;;;4.72;0.95;;;15.70;99.90;;;;;;4975114;29;20110;-89
2021/05/24 08:40:54;;;;;;;2.85;1.00;;;15.90;99.90;;;;;;4975821;29;20400;-88
2021/05/24 08:43:20;;;;;;;2.95;1.00;;;16.00;99.90;;;;;;4991353;29;20039;-88
2021/05/24 08:45:48;;;;;;;5.10;1.17;;;16.10;99.90;;;;;;4976341;29;20043;-87
2021/05/24 08:48:15;;;;;;;1.60;0.80;;;16.30;99.90;;;;;;4975477;29;20042;-88
2021/05/24 08:50:42;;;;;;;3.75;1.00;;;16.30;99.90;;;;;;4991817;28;20407;-88
2021/05/24 08:53:10;;;;;;;4.63;1.02;;;16.30;99.90;;;;;;4975029;29;20050;-88
2021/05/24 08:55:37;;;;;;;4.05;1.05;;;16.30;99.90;;;;;;4975455;29;20072;-89
2021/05/24 08:58:08;;;;;;;3.08;1.00;;;16.30;99.90;;;;;;4990566;29;20036;-87
2021/05/24 09:00:35;;;;;;;2.67;0.85;;;16.50;99.90;;;;;;4974998;29;20075;-90
2021/05/24 09:03:02;;;;;;;5.65;1.63;;;16.60;99.90;;;;;;4990546;29;20118;-87
2021/05/24 09:05:32;;;;;;;3.88;1.17;;;16.60;99.90;;;;;;4975101;29;20035;-88
2021/05/24 09:08:04;;;;;;;3.47;0.90;;;16.50;99.90;;;;;;4992040;29;20062;-88
2021/05/24 09:10:33;;;;;;;3.03;1.02;;;16.70;99.90;;;;;;4991001;29;20452;-87
2021/05/24 09:13:08;;;;;;;3.95;0.90;;;16.70;99.90;;;;;;4974803;29;20122;-87
2021/05/24 09:15:39;;;;;;;5.40;1.00;;;16.80;99.10;;;;;;4990609;29;20035;-88
2021/05/24 09:18:07;;;;;;;7.60;1.10;;;16.70;98.80;;;;;;4990357;29;20031;-89
2021/05/24 09:20:37;;;;;;;4.22;1.15;;;16.60;99.90;;;;;;4990438;29;20043;-89
2021/05/24 09:23:25;;;;;;;2.20;0.80;;;16.70;99.20;;;;;;4990721;29;20039;-89
2021/05/24 09:26:06;;;;;;;3.33;0.90;;;16.60;98.50;;;;;;4975343;29;20039;-89
2021/05/24 09:28:36;;;;;;;2.63;0.80;;;16.70;99.90;;;;;;4990862;29;20035;-89
2021/05/24 09:31:13;;;;;;;3.38;0.93;;;16.60;99.50;;;;;;4974244;29;20043;-88
2021/05/24 09:34:05;;;;;;;2.63;1.08;;;16.60;99.90;;;;;;4991882;29;20126;-89
2021/05/24 09:36:34;;;;;;;5.72;1.20;;;16.50;99.10;;;;;;4991662;29;20036;-88
2021/05/24 09:39:11;;;;;;;2.78;0.80;;;16.50;99.90;;;;;;4975023;29;20043;-86
2021/05/24 09:41:58;;;;;;;;;;;;;;;;;;;;;
2021/05/24 09:44:27;;;;;;;2.20;0.77;;;16.60;98.80;;;;;;4960884;29;20047;-89
2021/05/24 09:46:55;;;;;;;3.10;1.00;;;16.70;99.20;;;;;;4975290;29;20050;-87
2021/05/24 09:49:23;;;;;;;3.45;1.15;;;16.70;98.20;;;;;;4974512;29;20146;-88
2021/05/24 09:51:53;;;;;;;4.75;1.02;;;16.60;96.60;;;;;;4974207;29;20207;-88
2021/05/24 09:54:22;;;;;;;2.38;1.00;;;16.60;98.00;;;;;;4973631;29;20078;-88
2021/05/24 09:56:50;;;;;;;3.97;1.00;;;16.70;98.50;;;;;;4974573;29;20045;-88
2021/05/24 09:59:22;;;;;;;2.88;0.95;;;16.60;97.90;;;;;;4990755;29;20043;-90
2021/05/24 10:01:58;;;;;;;3.25;1.00;;;16.70;98.20;;;;;;4990772;28;20031;-87
2021/05/24 10:04:29;;;;;;;3.58;0.98;;;16.70;97.20;;;;;;4958290;29;20138;-89
2021/05/24 10:06:57;;;;;;;3.08;0.80;;;16.60;95.70;;;;;;4989976;29;20043;-89
2021/05/24 10:09:24;;;;;;;3.85;1.10;;;16.50;97.60;;;;;;4989640;29;20051;-87
2021/05/24 10:11:52;;;;;;;3.67;1.10;;;16.50;97.70;;;;;;4973903;29;20043;-89
2021/05/24 10:14:21;;;;;;;5.75;1.27;;;16.40;96.10;;;;;;4990483;29;20126;-90
2021/05/24 10:16:50;;;;;;;4.15;1.23;;;16.40;96.90;;;;;;4990968;29;20046;-88
2021/05/24 10:19:18;;;;;;;2.45;0.90;;;16.40;98.00;;;;;;4973711;29;20054;-88
2021/05/24 10:21:50;;;;;;;3.97;0.93;;;16.30;96.80;;;;;;4989601;29;20497;-87
2021/05/24 10:24:24;;;;;;;4.05;1.00;;;16.20;96.10;;;;;;4989015;29;20536;-89
2021/05/24 10:26:58;;;;;;;4.03;1.00;;;16.20;97.50;;;;;;4989851;29;20046;-87
2021/05/24 10:29:25;;;;;;;2.42;1.05;;;16.00;97.80;;;;;;4988849;29;20039;-89
2021/05/24 10:31:52;;;;;;;4.95;1.20;;;15.80;99.90;;;;;;4973575;29;20498;-87
2021/05/24 10:34:22;;;;;;;3.53;1.10;;;15.40;99.90;;;;;;4973667;29;20054;-86
2021/05/24 10:37:09;;;;;;;3.00;1.30;;;15.20;99.90;;;;;;4973647;29;20479;-88
2021/05/24 10:40:10;;;;;;;3.78;1.27;;;15.00;99.90;;;;;;4973579;29;20066;-89
2021/05/24 10:42:44;;;;;;;3.13;1.20;;;14.70;99.90;;;;;;4973593;29;20071;-87
2021/05/24 10:45:20;;;;;;;4.82;1.13;;;14.50;99.90;;;;;;4973607;29;20510;-87
2021/05/24 10:48:00;;;;;;;4.55;1.60;;;14.50;99.90;;;;;;4989122;29;20035;-87
2021/05/24 10:50:30;;;;;;;5.30;1.40;;;14.50;99.90;;;;;;4988689;28;20047;-88
2021/05/24 10:53:09;;;;;;;3.28;1.40;;;14.40;99.90;;;;;;4989773;29;20046;-88
2021/05/24 10:55:43;;;;;;;3.25;1.05;;;14.40;99.90;;;;;;4972969;29;20043;-88
2021/05/24 10:58:09;;;;;;;4.90;1.17;;;14.20;99.90;;;;;;4990559;29;20035;-88
2021/05/24 11:01:04;;;;;;;3.72;1.15;;;14.20;99.90;;;;;;4973339;29;20093;-88
2021/05/24 11:03:32;;;;;;;3.83;1.00;;;14.20;99.90;;;;;;4988808;29;20051;-88
2021/05/24 11:06:13;;;;;;;3.65;1.30;;;14.30;99.90;;;;;;4989352;29;20088;-88
2021/05/24 11:08:48;;;;;;;3.40;1.00;;;14.40;99.90;;;;;;4989438;29;20039;-87
2021/05/24 11:11:27;;;;;;;3.03;1.20;;;14.40;99.90;;;;;;4988972;29;20067;-87
2021/05/24 11:13:57;;;;;;;2.92;1.27;;;14.40;99.90;;;;;;4975847;29;20480;-88
2021/05/24 11:16:29;;;;;;;4.85;1.20;;;14.30;99.90;;;;;;4961009;29;20082;-87
2021/05/24 11:19:11;;;;;;;2.78;1.10;;;14.20;99.90;;;;;;4977043;29;20039;-87
2021/05/24 11:21:46;;;;;;;3.28;1.00;;;14.20;99.90;;;;;;4994446;29;20102;-87
2021/05/24 11:24:37;;;;;;;3.42;1.02;;;14.10;99.90;;;;;;4996204;29;20035;-88
2021/05/24 11:27:11;;;;;;;2.53;1.13;;;14.10;99.90;;;;;;4980867;29;20062;-89
2021/05/24 11:29:42;;;;;;;5.65;1.45;;;14.10;99.90;;;;;;4980529;29;20039;-89
2021/05/24 11:32:27;;;;;;;3.58;1.38;;;14.00;99.90;;;;;;4996797;29;20042;-88
2021/05/24 11:34:55;;;;;;;4.13;1.20;;;14.00;99.90;;;;;;4980205;29;20110;-86
2021/05/24 11:37:41;;;;;;;3.83;1.27;;;13.90;99.90;;;;;;4996071;29;20040;-88
2021/05/24 11:40:16;;;;;;;2.38;1.10;;;13.80;99.90;;;;;;4979312;29;20408;-87
2021/05/24 11:42:43;;;;;;;5.35;1.30;;;13.70;99.90;;;;;;4993602;29;20050;-87
2021/05/24 11:45:18;;;;;;;3.30;1.27;;;13.70;99.90;;;;;;4994233;29;20043;-88
2021/05/24 11:47:45;;;;;;;5.80;1.70;;;13.70;99.90;;;;;;4960873;29;20073;-87
2021/05/24 11:50:17;;;;;;;4.00;1.20;;;13.60;99.90;;;;;;4976494;29;20063;-87
2021/05/24 11:52:44;;;;;;;3.85;1.25;;;13.50;99.90;;;;;;4977194;29;20082;-88
2021/05/24 11:55:13;;;;;;;6.03;1.50;;;13.50;99.90;;;;;;4961050;29;20051;-87
2021/05/24 11:57:43;;;;;;;4.95;1.40;;;13.50;99.90;;;;;;4976596;29;20400;-87
2021/05/24 12:00:13;;;;;;;4.25;1.50;;;13.40;99.90;;;;;;4992835;29;20046;-87
2021/05/24 12:02:42;;;;;;;3.63;1.35;;;13.40;99.90;;;;;;4992227;29;20476;-87
2021/05/24 12:05:10;;;;;;;4.75;1.20;;;13.30;99.90;;;;;;4992777;29;20023;-87
2021/05/24 12:07:37;;;;;;;3.55;1.58;;;13.40;99.90;;;;;;4976572;29;20074;-87
2021/05/24 12:10:06;;;;;;;4.10;1.52;;;13.40;99.90;;;;;;4992170;29;20399;-87
2021/05/24 12:12:37;;;;;;;7.13;1.48;;;13.50;99.90;;;;;;4965931;28;20047;-88
2021/05/24 12:15:16;;;;;;;4.18;1.52;;;13.50;99.90;;;;;;4995762;28;20038;-87
2021/05/24 12:17:51;;;;;;;5.72;1.58;;;13.40;99.90;;;;;;4977908;28;20034;-84
2021/05/24 12:20:19;;;;;;;5.53;1.92;;;13.30;99.90;;;;;;4994649;28;20046;-84
2021/05/24 12:22:46;;;;;;;3.63;1.90;;;13.30;99.90;;;;;;5006108;28;20399;-85
2021/05/24 12:25:17;;;;;;;5.30;2.00;;;13.20;99.90;;;;;;4993028;28;20495;-84
2021/05/24 12:27:46;;;;;;;4.82;2.13;;;13.20;99.90;;;;;;4993113;28;20061;-84
2021/05/24 12:30:35;;;;;;;3.25;1.60;;;13.20;99.90;;;;;;4974512;29;20126;-87
2021/05/24 12:33:09;;;;;;;3.55;1.58;;;13.30;99.90;;;;;;4974499;29;20058;-85
2021/05/24 12:35:44;;;;;;;5.10;1.55;;;13.30;99.90;;;;;;4990048;29;20050;-84
2021/05/24 12:40:54;;;;;;;5.15;1.88;;;13.40;99.90;;;;;;5003941;28;20039;-85
2021/05/24 12:43:21;;;;;;;3.67;1.40;;;13.40;99.90;;;;;;4998122;28;20043;-85
2021/05/24 12:45:48;;;;;;;3.95;1.77;;;13.50;99.90;;;;;;4982568;28;20494;-85
2021/05/24 12:48:20;;;;;;;4.28;1.48;;;13.40;99.90;;;;;;5001940;28;20042;-85
2021/05/24 12:50:49;;;;;;;4.93;1.80;;;13.40;99.90;;;;;;4999961;28;20050;-85
2021/05/24 12:53:18;;;;;;;5.80;1.70;;;13.40;99.90;;;;;;4993624;28;20043;-84
2021/05/24 12:55:47;;;;;;;4.40;1.95;;;13.40;99.90;;;;;;4993405;28;20428;-84
2021/05/24 12:58:19;;;;;;;4.80;1.58;;;13.40;99.90;;;;;;4956599;29;20031;-85
2021/05/24 13:00:57;;;;;;;6.50;1.77;;;13.40;99.90;;;;;;4973916;29;20484;-85
2021/05/24 13:03:45;;;;;;;5.47;1.90;;;13.50;99.90;;;;;;4974494;29;20047;-85